createdAt,value
2023-04-15T11:33:14.730Z,13.46
2023-04-15T11:35:42.467Z,13.51
2023-04-15T11:38:14.506Z,13.42
2023-04-15T11:40:45.310Z,13.26
2023-04-15T11:43:21.784Z,13.07
2023-04-15T11:45:55.954Z,13.20
2023-04-15T11:48:30.765Z,12.99
2023-04-15T11:51:01.909Z,12.78
2023-04-15T11:53:46.469Z,12.84
2023-04-15T11:56:23.938Z,12.93
2023-04-15T11:58:57.229Z,12.56
2023-04-15T12:01:39.970Z,12.74
2023-04-15T12:04:14.809Z,13.04
2023-04-15T12:06:41.667Z,12.86
2023-04-15T12:09:12.461Z,12.96
2023-04-15T12:11:47.509Z,12.58
2023-04-15T12:14:30.304Z,12.73
2023-04-15T12:17:01.563Z,12.43
2023-04-15T12:19:42.078Z,12.54
2023-04-15T12:22:20.857Z,12.32
2023-04-15T12:24:48.965Z,12.00
2023-04-15T12:27:17.419Z,12.02
2023-04-15T12:29:44.443Z,12.02
2023-04-15T12:32:13.185Z,12.05
2023-04-15T12:34:41.929Z,11.82
2023-04-15T12:37:10.893Z,11.70
2023-04-15T12:39:39.581Z,11.85
2023-04-15T12:42:06.966Z,11.89
2023-04-15T12:44:34.379Z,11.78
2023-04-15T12:47:01.374Z,11.34
2023-04-15T12:49:28.222Z,11.55
2023-04-15T12:51:57.044Z,11.55
2023-04-15T12:54:23.980Z,11.63
2023-04-15T12:56:51.334Z,11.40
2023-04-15T12:59:18.795Z,11.33
2023-04-15T13:01:46.669Z,11.44
2023-04-15T13:04:14.414Z,11.47
2023-04-15T13:06:41.197Z,11.34
2023-04-15T13:09:07.877Z,11.39
2023-04-15T13:11:34.606Z,11.15
2023-04-15T13:14:04.071Z,11.36
2023-04-15T13:16:32.114Z,11.33
2023-04-15T13:19:04.242Z,11.44
2023-04-15T13:21:35.079Z,11.27
2023-04-15T13:24:02.381Z,11.32
2023-04-15T13:26:29.306Z,11.34
2023-04-15T13:28:56.356Z,11.22
2023-04-15T13:31:23.022Z,11.16
2023-04-15T13:33:49.766Z,11.13
2023-04-15T13:36:16.736Z,11.22
2023-04-15T13:38:43.426Z,11.02
2023-04-15T13:41:10.096Z,11.01
2023-04-15T13:43:39.144Z,11.21
2023-04-15T13:46:06.278Z,11.17
2023-04-15T13:48:33.097Z,11.13
2023-04-15T13:50:59.787Z,11.23
2023-04-15T13:53:33.998Z,11.17
2023-04-15T13:56:09.343Z,11.34
2023-04-15T13:58:37.759Z,11.27
2023-04-15T14:01:07.051Z,11.01
2023-04-15T14:03:37.654Z,10.85
2023-04-15T14:06:07.927Z,10.94
2023-04-15T14:08:36.010Z,10.87
2023-04-15T14:11:02.907Z,10.84
2023-04-15T14:13:32.758Z,10.91
2023-04-15T14:15:59.635Z,10.76
2023-04-15T14:18:26.533Z,10.79
2023-04-15T14:20:53.689Z,10.72
2023-04-15T14:23:20.461Z,10.61
2023-04-15T14:25:48.286Z,10.48
2023-04-15T14:28:15.486Z,10.53
2023-04-15T14:30:42.513Z,10.44
2023-04-15T14:33:09.388Z,10.39
2023-04-15T14:35:38.251Z,10.16
2023-04-15T14:38:06.232Z,10.24
2023-04-15T14:40:33.920Z,10.09
2023-04-15T14:43:02.539Z,10.18
2023-04-15T14:45:31.771Z,10.35
2023-04-15T14:47:59.605Z,10.23
2023-04-15T14:50:26.493Z,10.27
2023-04-15T14:52:53.204Z,10.24
2023-04-15T14:55:20.465Z,10.33
2023-04-15T14:57:47.408Z,10.29
2023-04-15T15:00:16.050Z,10.09
2023-04-15T15:02:43.187Z,10.14
2023-04-15T15:05:10.959Z,10.22
2023-04-15T15:07:39.498Z,10.15
2023-04-15T15:10:07.396Z,10.18
2023-04-15T15:12:34.458Z,10.14
2023-04-15T15:15:04.988Z,10.12
2023-04-15T15:17:36.549Z,10.10
2023-04-15T15:20:04.136Z,9.85
2023-04-15T15:22:30.972Z,10.27
2023-04-15T15:24:59.757Z,9.93
2023-04-15T15:27:26.645Z,9.94
2023-04-15T15:29:53.452Z,10.14
2023-04-15T15:32:20.405Z,9.93
2023-04-15T15:34:47.076Z,9.90
2023-04-15T15:37:13.819Z,10.08
2023-04-15T15:39:40.758Z,9.94
2023-04-15T15:42:08.091Z,10.06
2023-04-15T15:44:38.403Z,9.95
2023-04-15T15:47:08.421Z,10.02
2023-04-15T15:49:35.235Z,9.91
2023-04-15T15:52:02.084Z,9.90
2023-04-15T15:54:29.291Z,9.79
2023-04-15T15:56:57.595Z,9.63
2023-04-15T15:59:25.914Z,9.46
2023-04-15T16:01:53.001Z,9.49
2023-04-15T16:04:19.998Z,9.64
2023-04-15T16:06:47.041Z,9.51
2023-04-15T16:09:13.756Z,9.53
2023-04-15T16:11:41.374Z,9.60
2023-04-15T16:14:13.075Z,9.68
2023-04-15T16:16:39.838Z,9.58
2023-04-15T16:19:06.769Z,9.64
2023-04-15T16:21:34.553Z,9.58
2023-04-15T16:24:02.235Z,9.64
2023-04-15T16:26:29.047Z,9.63
2023-04-15T16:28:55.797Z,9.63
2023-04-15T16:31:22.624Z,9.74
2023-04-15T16:33:49.480Z,9.61
2023-04-15T16:36:16.147Z,9.63
2023-04-15T16:38:45.300Z,9.41
2023-04-15T16:41:11.956Z,9.42
2023-04-15T16:43:38.669Z,9.45
2023-04-15T16:46:05.513Z,9.32
2023-04-15T16:48:32.719Z,9.33
2023-04-15T16:50:59.481Z,9.37
2023-04-15T16:53:26.303Z,9.27
2023-04-15T16:55:52.995Z,9.16
2023-04-15T16:58:20.264Z,9.09
2023-04-15T17:00:47.199Z,9.01
2023-04-15T17:03:14.158Z,9.14
2023-04-15T17:05:42.385Z,9.24
2023-04-15T17:08:09.254Z,9.14
2023-04-15T17:10:36.352Z,9.09
2023-04-15T17:13:03.116Z,9.13
2023-04-15T17:15:31.434Z,9.13
2023-04-15T17:18:00.176Z,9.21
2023-04-15T17:20:26.892Z,9.12
2023-04-15T17:22:53.783Z,9.01
2023-04-15T17:25:20.909Z,8.99
2023-04-15T17:27:47.673Z,9.02
2023-04-15T17:30:14.382Z,9.01
2023-04-15T17:32:41.186Z,8.94
2023-04-15T17:35:08.391Z,8.88
2023-04-15T17:37:35.273Z,8.84
2023-04-15T17:40:02.573Z,8.82
2023-04-15T17:42:29.318Z,8.69
2023-04-15T17:44:56.061Z,8.55
2023-04-15T17:47:22.999Z,8.58
2023-04-15T17:49:49.709Z,8.58
2023-04-15T17:52:16.410Z,8.49
2023-04-15T17:54:43.106Z,8.53
2023-04-15T17:57:09.834Z,8.56
2023-04-15T17:59:36.636Z,8.47
2023-04-15T18:02:03.535Z,8.47
2023-04-15T18:04:30.580Z,8.43
2023-04-15T18:06:57.449Z,8.35
2023-04-15T18:09:24.182Z,8.35
2023-04-15T18:11:50.900Z,8.31
2023-04-15T18:14:30.550Z,8.33
2023-04-15T18:17:00.734Z,8.27
2023-04-15T18:19:27.478Z,8.33
2023-04-15T18:21:54.422Z,8.31
2023-04-15T18:24:21.192Z,8.24
2023-04-15T18:26:49.215Z,8.26
2023-04-15T18:29:18.837Z,8.22
2023-04-15T18:31:45.595Z,8.24
2023-04-15T18:34:12.855Z,8.29
2023-04-15T18:36:39.554Z,8.38
2023-04-15T18:39:06.510Z,8.35
2023-04-15T18:41:33.461Z,8.42
2023-04-15T18:44:00.121Z,8.29
2023-04-15T18:46:28.211Z,8.28
2023-04-15T18:48:54.942Z,8.22
2023-04-15T18:51:21.781Z,8.25
2023-04-15T18:53:51.611Z,8.20
2023-04-15T18:56:18.341Z,8.11
2023-04-15T18:59:25.864Z,8.15
2023-04-15T19:01:32.516Z,8.15
2023-04-15T19:03:59.655Z,8.17
2023-04-15T19:06:27.227Z,8.09
2023-04-15T19:08:54.497Z,8.17
2023-04-15T19:11:21.882Z,8.15
2023-04-15T19:13:48.645Z,8.07
2023-04-15T19:16:15.469Z,8.01
2023-04-15T19:18:42.980Z,7.95
2023-04-15T19:21:11.289Z,7.98
2023-04-15T19:23:38.727Z,8.01
2023-04-15T19:26:08.234Z,8.01
2023-04-15T19:28:35.207Z,7.99
2023-04-15T19:31:01.942Z,8.01
2023-04-15T19:33:31.361Z,7.98
2023-04-15T19:36:02.735Z,7.98
2023-04-15T19:38:31.894Z,8.04
2023-04-15T19:40:59.286Z,7.95
2023-04-15T19:43:26.482Z,7.90
2023-04-15T19:45:54.674Z,7.91
2023-04-15T19:48:22.863Z,7.81
2023-04-15T19:50:49.537Z,7.86
2023-04-15T19:53:16.284Z,7.85
2023-04-15T19:55:44.513Z,7.87
2023-04-15T19:58:11.392Z,7.88
2023-04-15T20:00:40.672Z,7.88
2023-04-15T20:03:07.809Z,7.84
2023-04-15T20:05:34.713Z,7.83
2023-04-15T20:08:01.814Z,7.85
2023-04-15T20:10:29.752Z,7.85
2023-04-15T20:12:56.431Z,7.86
2023-04-15T20:15:24.085Z,7.81
2023-04-15T20:17:51.207Z,7.83
2023-04-15T20:20:18.247Z,7.82
2023-04-15T20:22:45.404Z,7.75
2023-04-15T20:25:12.224Z,7.80
2023-04-15T20:27:38.988Z,7.78
2023-04-15T20:30:06.500Z,7.78
2023-04-15T20:32:35.926Z,7.78
2023-04-15T20:35:04.504Z,7.78
2023-04-15T20:37:33.394Z,7.81
2023-04-15T20:40:01.458Z,7.84
2023-04-15T20:42:28.659Z,7.81
2023-04-15T20:44:55.689Z,7.77
2023-04-15T20:47:22.612Z,7.82
2023-04-15T20:49:49.590Z,7.84
2023-04-15T20:52:19.215Z,7.76
2023-04-15T20:54:47.084Z,7.77
2023-04-15T20:57:13.963Z,7.74
2023-04-15T20:59:40.833Z,7.75
2023-04-15T21:02:09.052Z,7.73
2023-04-15T21:04:37.952Z,7.76
2023-04-15T21:07:04.883Z,7.73
2023-04-15T21:09:33.791Z,7.79
2023-04-15T21:12:02.356Z,7.80
2023-04-15T21:14:29.819Z,7.81
2023-04-15T21:16:57.653Z,7.84
2023-04-15T21:19:24.456Z,7.82
2023-04-15T21:21:51.190Z,7.83
2023-04-15T21:24:17.821Z,7.85
2023-04-15T21:26:44.538Z,7.85
2023-04-15T21:29:12.006Z,7.81
2023-04-15T21:31:39.130Z,7.81
2023-04-15T21:34:06.087Z,7.84
2023-04-15T21:36:34.024Z,7.78
2023-04-15T21:39:01.114Z,7.81
2023-04-15T21:41:27.917Z,7.80
2023-04-15T21:43:57.164Z,7.80
2023-04-15T21:46:33.264Z,7.76
2023-04-15T21:49:06.873Z,7.72
2023-04-15T21:51:36.814Z,7.69
2023-04-15T21:54:05.955Z,7.64
2023-04-15T21:56:33.124Z,7.74
2023-04-15T21:58:59.836Z,7.66
2023-04-15T22:01:26.953Z,7.66
2023-04-15T22:03:53.843Z,7.65
2023-04-15T22:06:33.996Z,7.64
2023-04-15T22:09:00.684Z,7.68
2023-04-15T22:11:30.713Z,7.74
2023-04-15T22:13:58.802Z,7.68
2023-04-15T22:16:26.856Z,7.73
2023-04-15T22:18:55.706Z,7.81
2023-04-15T22:21:22.821Z,7.79
2023-04-15T22:24:38.076Z,7.79
2023-04-15T22:26:44.992Z,7.81
2023-04-15T22:29:11.686Z,7.83
2023-04-15T22:31:38.430Z,7.83
2023-04-15T22:34:05.283Z,7.81
2023-04-15T22:36:31.990Z,7.81
2023-04-15T22:38:58.725Z,7.78
2023-04-15T22:41:25.508Z,7.84
2023-04-15T22:44:02.605Z,7.86
2023-04-15T22:46:29.359Z,7.86
2023-04-15T22:48:56.188Z,7.87
2023-04-15T22:51:28.289Z,7.86
2023-04-15T22:53:56.357Z,7.86
2023-04-15T22:56:23.678Z,7.90
2023-04-15T22:58:50.858Z,7.95
2023-04-15T23:01:18.378Z,7.94
2023-04-15T23:03:56.458Z,7.95
2023-04-15T23:06:25.527Z,8.03
2023-04-15T23:08:52.668Z,8.02
2023-04-15T23:11:19.509Z,7.99
2023-04-15T23:13:46.119Z,8.01
2023-04-15T23:16:12.873Z,7.98
2023-04-15T23:18:39.555Z,7.95
2023-04-15T23:21:06.288Z,8.03
2023-04-15T23:23:33.055Z,8.04
2023-04-15T23:26:01.340Z,8.05
2023-04-15T23:28:28.113Z,8.01
2023-04-15T23:30:54.900Z,7.98
2023-04-15T23:33:21.683Z,7.97
2023-04-15T23:35:48.415Z,7.89
2023-04-15T23:38:15.106Z,7.89
2023-04-15T23:40:41.764Z,7.89
2023-04-15T23:43:08.486Z,7.93
2023-04-15T23:45:35.305Z,7.82
2023-04-15T23:48:02.309Z,7.73
2023-04-15T23:50:29.129Z,7.84
2023-04-15T23:52:55.890Z,7.82
2023-04-15T23:55:22.683Z,7.82
2023-04-15T23:57:49.357Z,7.77
